KOR42C ZKPY-ZKWS
Flight info
| Callsign | KOR42C |
|---|---|
| Flight time | 0h 20m |
| Altitude | 13000 |
| Route | SOC21D SOCHA W2 CONAR CON21A |
| Aircraft | A320/M-SDE3FGHIRWY/LB1 |
Departure
| Time | 2026-04-29 12:30 |
|---|---|
| Airport | Pyongyang Sunan International Airport (ZKPY) |
Arrival
| Time | 2026-04-29 12:50 |
|---|---|
| Airport | Wonsan Kalma Airport (ZKWS) |
| Time | Latitude | Longitude | Altitude | Speed | Heading |
|---|---|---|---|---|---|
| 2026-04-29 12:16 | 39.19749 | 125.67699 | 105 ft | 0 kts | 72° |
| 2026-04-29 12:22 | 39.19749 | 125.67700 | 105 ft | 0 kts | 72° |
| 2026-04-29 12:23 | 39.19750 | 125.67706 | 104 ft | 1 kts | 72° |
| 2026-04-29 12:23 | 39.19749 | 125.67700 | 106 ft | 2 kts | 72° |
| 2026-04-29 12:23 | 39.19744 | 125.67680 | 114 ft | 2 kts | 72° |
| 2026-04-29 12:24 | 39.19739 | 125.67659 | 113 ft | 2 kts | 72° |
| 2026-04-29 12:24 | 39.19738 | 125.67656 | 112 ft | 0 kts | 72° |
| 2026-04-29 12:25 | 39.19738 | 125.67658 | 113 ft | 0 kts | 82° |
| 2026-04-29 12:25 | 39.19735 | 125.67666 | 111 ft | 0 kts | 123° |
| 2026-04-29 12:26 | 39.19727 | 125.67671 | 115 ft | 2 kts | 151° |
| 2026-04-29 12:26 | 39.19715 | 125.67666 | 115 ft | 2 kts | 197° |
| 2026-04-29 12:26 | 39.19694 | 125.67656 | 114 ft | 4 kts | 201° |
| 2026-04-29 12:26 | 39.19664 | 125.67643 | 115 ft | 5 kts | 193° |
| 2026-04-29 12:27 | 39.19627 | 125.67651 | 113 ft | 6 kts | 165° |
| 2026-04-29 12:27 | 39.19582 | 125.67666 | 114 ft | 7 kts | 164° |
| 2026-04-29 12:27 | 39.19528 | 125.67687 | 114 ft | 9 kts | 163° |
| 2026-04-29 12:27 | 39.19466 | 125.67713 | 114 ft | 10 kts | 162° |
| 2026-04-29 12:28 | 39.19397 | 125.67740 | 113 ft | 11 kts | 163° |
| 2026-04-29 12:28 | 39.19319 | 125.67771 | 114 ft | 12 kts | 163° |
| 2026-04-29 12:28 | 39.19233 | 125.67806 | 115 ft | 14 kts | 162° |
| 2026-04-29 12:28 | 39.19139 | 125.67829 | 112 ft | 14 kts | 189° |
| 2026-04-29 12:29 | 39.19092 | 125.67744 | 113 ft | 13 kts | 277° |
| 2026-04-29 12:29 | 39.19116 | 125.67627 | 112 ft | 14 kts | 295° |
| 2026-04-29 12:29 | 39.19194 | 125.67563 | 113 ft | 13 kts | 344° |
| 2026-04-29 12:29 | 39.19279 | 125.67531 | 113 ft | 32 kts | 343° |
| 2026-04-29 12:30 | 39.19708 | 125.67364 | 114 ft | 94 kts | 342° |
| 2026-04-29 12:30 | 39.20513 | 125.67039 | 119 ft | 147 kts | 342° |
| 2026-04-29 12:30 | 39.21514 | 125.66674 | 665 ft | 150 kts | 352° |
| 2026-04-29 12:30 | 39.22467 | 125.67071 | 1385 ft | 150 kts | 47° |
| 2026-04-29 12:31 | 39.22965 | 125.68273 | 2043 ft | 159 kts | 68° |
| 2026-04-29 12:31 | 39.23415 | 125.69739 | 2222 ft | 192 kts | 64° |
| 2026-04-29 12:31 | 39.23775 | 125.70818 | 2500 ft | 202 kts | 63° |
| 2026-04-29 12:31 | 39.24564 | 125.73107 | 3093 ft | 226 kts | 63° |
| 2026-04-29 12:32 | 39.25266 | 125.75093 | 3577 ft | 255 kts | 63° |
| 2026-04-29 12:32 | 39.26014 | 125.77207 | 4707 ft | 261 kts | 62° |
| 2026-04-29 12:32 | 39.26517 | 125.78630 | 5401 ft | 266 kts | 62° |
| 2026-04-29 12:32 | 39.27290 | 125.80805 | 5875 ft | 266 kts | 62° |
| 2026-04-29 12:33 | 39.28059 | 125.82965 | 6070 ft | 265 kts | 62° |
| 2026-04-29 12:33 | 39.28787 | 125.85155 | 6121 ft | 266 kts | 71° |
| 2026-04-29 12:33 | 39.28952 | 125.87539 | 6816 ft | 274 kts | 92° |
| 2026-04-29 12:33 | 39.28699 | 125.90014 | 7815 ft | 281 kts | 94° |
| 2026-04-29 12:34 | 39.28419 | 125.92527 | 8875 ft | 285 kts | 95° |
| 2026-04-29 12:34 | 39.28125 | 125.95079 | 9886 ft | 290 kts | 95° |
| 2026-04-29 12:34 | 39.27819 | 125.97701 | 10588 ft | 306 kts | 96° |
| 2026-04-29 12:34 | 39.27488 | 126.00564 | 10738 ft | 339 kts | 96° |
| 2026-04-29 12:35 | 39.27126 | 126.03704 | 10944 ft | 367 kts | 96° |
| 2026-04-29 12:35 | 39.26738 | 126.07013 | 11596 ft | 377 kts | 96° |
| 2026-04-29 12:35 | 39.26338 | 126.10383 | 12414 ft | 382 kts | 97° |
| 2026-04-29 12:35 | 39.25930 | 126.13801 | 13026 ft | 388 kts | 96° |
| 2026-04-29 12:36 | 39.25521 | 126.17243 | 13187 ft | 388 kts | 96° |
| 2026-04-29 12:36 | 39.25192 | 126.20690 | 13202 ft | 386 kts | 90° |
| 2026-04-29 12:36 | 39.25292 | 126.24133 | 13193 ft | 383 kts | 80° |
| 2026-04-29 12:36 | 39.25697 | 126.27533 | 13201 ft | 383 kts | 78° |
| 2026-04-29 12:37 | 39.26105 | 126.30926 | 13191 ft | 383 kts | 78° |
| 2026-04-29 12:37 | 39.26511 | 126.34321 | 13191 ft | 383 kts | 78° |
| 2026-04-29 12:37 | 39.26912 | 126.37719 | 13193 ft | 383 kts | 78° |
| 2026-04-29 12:37 | 39.27313 | 126.41115 | 13198 ft | 383 kts | 78° |
| 2026-04-29 12:38 | 39.27714 | 126.44511 | 13199 ft | 383 kts | 78° |
| 2026-04-29 12:38 | 39.28115 | 126.47913 | 13197 ft | 383 kts | 79° |
| 2026-04-29 12:38 | 39.28514 | 126.51311 | 13196 ft | 383 kts | 79° |
| 2026-04-29 12:38 | 39.28909 | 126.54710 | 13194 ft | 383 kts | 79° |
| 2026-04-29 12:39 | 39.29304 | 126.58111 | 13167 ft | 383 kts | 79° |
| 2026-04-29 12:39 | 39.29686 | 126.61433 | 13042 ft | 372 kts | 79° |
| 2026-04-29 12:39 | 39.30059 | 126.64703 | 12770 ft | 356 kts | 79° |
| 2026-04-29 12:39 | 39.30409 | 126.67760 | 12444 ft | 343 kts | 78° |
| 2026-04-29 12:40 | 39.30755 | 126.70761 | 12112 ft | 333 kts | 78° |
| 2026-04-29 12:40 | 39.31094 | 126.73682 | 11778 ft | 325 kts | 78° |
| 2026-04-29 12:40 | 39.31426 | 126.76534 | 11452 ft | 318 kts | 78° |
| 2026-04-29 12:40 | 39.31749 | 126.79334 | 11126 ft | 312 kts | 78° |
| 2026-04-29 12:41 | 39.32063 | 126.82078 | 10807 ft | 306 kts | 78° |
| 2026-04-29 12:41 | 39.32372 | 126.84783 | 10490 ft | 302 kts | 78° |
| 2026-04-29 12:41 | 39.32674 | 126.87451 | 10174 ft | 299 kts | 79° |
| 2026-04-29 12:41 | 39.32973 | 126.90088 | 9823 ft | 295 kts | 79° |
| 2026-04-29 12:42 | 39.33267 | 126.92689 | 9483 ft | 291 kts | 79° |
| 2026-04-29 12:42 | 39.33558 | 126.95259 | 9135 ft | 288 kts | 79° |
| 2026-04-29 12:42 | 39.33849 | 126.97811 | 8785 ft | 286 kts | 79° |
| 2026-04-29 12:42 | 39.34137 | 127.00340 | 8450 ft | 282 kts | 79° |
| 2026-04-29 12:43 | 39.34419 | 127.02832 | 8118 ft | 278 kts | 79° |
| 2026-04-29 12:43 | 39.34694 | 127.05271 | 7782 ft | 271 kts | 79° |
| 2026-04-29 12:43 | 39.34960 | 127.07648 | 7447 ft | 264 kts | 80° |
| 2026-04-29 12:43 | 39.35221 | 127.09979 | 7124 ft | 261 kts | 81° |
| 2026-04-29 12:44 | 39.35477 | 127.12294 | 6800 ft | 260 kts | 81° |
| 2026-04-29 12:44 | 39.35732 | 127.14598 | 6482 ft | 258 kts | 80° |
| 2026-04-29 12:44 | 39.35983 | 127.16861 | 6300 ft | 252 kts | 80° |
| 2026-04-29 12:44 | 39.36231 | 127.19095 | 6012 ft | 251 kts | 81° |
| 2026-04-29 12:45 | 39.36222 | 127.21360 | 5675 ft | 255 kts | 99° |
| 2026-04-29 12:45 | 39.35646 | 127.23528 | 5345 ft | 257 kts | 115° |
| 2026-04-29 12:45 | 39.34864 | 127.25616 | 5006 ft | 259 kts | 115° |
| 2026-04-29 12:45 | 39.34078 | 127.27715 | 4669 ft | 260 kts | 114° |
| 2026-04-29 12:46 | 39.33289 | 127.29818 | 4325 ft | 261 kts | 115° |
| 2026-04-29 12:46 | 39.32497 | 127.31931 | 3994 ft | 262 kts | 115° |
| 2026-04-29 12:46 | 39.31701 | 127.34049 | 3656 ft | 261 kts | 115° |
| 2026-04-29 12:46 | 39.30910 | 127.36117 | 3327 ft | 253 kts | 119° |
| 2026-04-29 12:47 | 39.29794 | 127.37828 | 3002 ft | 249 kts | 142° |
| 2026-04-29 12:47 | 39.28363 | 127.39055 | 2768 ft | 242 kts | 147° |
| 2026-04-29 12:47 | 39.26978 | 127.40198 | 2617 ft | 231 kts | 148° |
| 2026-04-29 12:47 | 39.25668 | 127.41283 | 2495 ft | 217 kts | 148° |
| 2026-04-29 12:48 | 39.24455 | 127.42296 | 2360 ft | 197 kts | 147° |
| 2026-04-29 12:48 | 39.23396 | 127.43219 | 2079 ft | 175 kts | 146° |
| 2026-04-29 12:48 | 39.22404 | 127.44134 | 1605 ft | 174 kts | 146° |
| 2026-04-29 12:48 | 39.21379 | 127.44946 | 1073 ft | 171 kts | 152° |
| 2026-04-29 12:49 | 39.20386 | 127.45633 | 789 ft | 156 kts | 150° |
| 2026-04-29 12:49 | 39.19511 | 127.46353 | 590 ft | 141 kts | 147° |
| 2026-04-29 12:49 | 39.18711 | 127.47043 | 366 ft | 136 kts | 153° |
| 2026-04-29 12:49 | 39.17925 | 127.47674 | 149 ft | 133 kts | 148° |
| 2026-04-29 12:50 | 39.17191 | 127.48272 | 43 ft | 110 kts | 148° |
| 2026-04-29 12:50 | 39.16714 | 127.48670 | 43 ft | 61 kts | 147° |
| 2026-04-29 12:50 | 39.16365 | 127.48945 | 44 ft | 56 kts | 148° |
| 2026-04-29 12:50 | 39.16050 | 127.49158 | 44 ft | 41 kts | 173° |
| 2026-04-29 12:51 | 39.15834 | 127.49154 | 42 ft | 26 kts | 177° |
| 2026-04-29 12:51 | 39.15707 | 127.49183 | 44 ft | 17 kts | 184° |
| 2026-04-29 12:51 | 39.15686 | 127.49094 | 44 ft | 13 kts | 329° |
| 2026-04-29 12:51 | 39.15762 | 127.49022 | 45 ft | 14 kts | 315° |
| 2026-04-29 12:52 | 39.15839 | 127.48937 | 46 ft | 15 kts | 328° |
| 2026-04-29 12:52 | 39.15931 | 127.48864 | 46 ft | 16 kts | 327° |
| 2026-04-29 12:52 | 39.16027 | 127.48783 | 46 ft | 17 kts | 327° |
| 2026-04-29 12:52 | 39.16129 | 127.48698 | 46 ft | 18 kts | 327° |
| 2026-04-29 12:53 | 39.16236 | 127.48609 | 45 ft | 19 kts | 327° |
| 2026-04-29 12:53 | 39.16350 | 127.48518 | 45 ft | 20 kts | 327° |
| 2026-04-29 12:53 | 39.16467 | 127.48416 | 47 ft | 21 kts | 325° |
| 2026-04-29 12:53 | 39.16564 | 127.48306 | 43 ft | 17 kts | 280° |
| 2026-04-29 12:54 | 39.16546 | 127.48221 | 43 ft | 0 kts | 255° |
| 2026-04-29 13:08 | 39.16546 | 127.48218 | 43 ft | 1 kts | 264° |
| 2026-04-29 13:08 | 39.16548 | 127.48212 | 43 ft | 0 kts | 280° |
| 2026-04-29 13:09 | 39.16558 | 127.48200 | 45 ft | 4 kts | 330° |
| 2026-04-29 13:09 | 39.16592 | 127.48223 | 45 ft | 7 kts | 38° |
| 2026-04-29 13:09 | 39.16629 | 127.48267 | 43 ft | 7 kts | 45° |
| 2026-04-29 13:09 | 39.16664 | 127.48320 | 42 ft | 8 kts | 53° |
| 2026-04-29 13:10 | 39.16674 | 127.48394 | 41 ft | 9 kts | 106° |
| 2026-04-29 13:10 | 39.16626 | 127.48449 | 41 ft | 10 kts | 151° |
| 2026-04-29 13:10 | 39.16564 | 127.48494 | 41 ft | 12 kts | 150° |
| 2026-04-29 13:10 | 39.16494 | 127.48552 | 44 ft | 12 kts | 146° |
| 2026-04-29 13:11 | 39.16425 | 127.48611 | 44 ft | 12 kts | 146° |
| 2026-04-29 13:11 | 39.16339 | 127.48684 | 44 ft | 19 kts | 147° |
| 2026-04-29 13:11 | 39.16213 | 127.48787 | 44 ft | 24 kts | 147° |
| 2026-04-29 13:11 | 39.16053 | 127.48917 | 42 ft | 28 kts | 147° |
| 2026-04-29 13:12 | 39.15887 | 127.49054 | 43 ft | 28 kts | 147° |
| 2026-04-29 13:12 | 39.15728 | 127.49185 | 44 ft | 27 kts | 148° |
| 2026-04-29 13:12 | 39.15572 | 127.49311 | 45 ft | 26 kts | 147° |
| 2026-04-29 13:12 | 39.15419 | 127.49437 | 44 ft | 26 kts | 148° |
| 2026-04-29 13:13 | 39.15273 | 127.49572 | 44 ft | 25 kts | 124° |
| 2026-04-29 13:13 | 39.15207 | 127.49741 | 42 ft | 20 kts | 112° |
| 2026-04-29 13:13 | 39.15240 | 127.49861 | 42 ft | 13 kts | 359° |
| 2026-04-29 13:13 | 39.15280 | 127.49838 | 40 ft | 11 kts | 332° |
| 2026-04-29 13:14 | 39.15499 | 127.49665 | 40 ft | 63 kts | 326° |
| 2026-04-29 13:14 | 39.16011 | 127.49234 | 44 ft | 111 kts | 328° |
| 2026-04-29 13:14 | 39.16791 | 127.48600 | 43 ft | 152 kts | 327° |
| 2026-04-29 13:14 | 39.17668 | 127.47843 | 557 ft | 147 kts | 325° |
| 2026-04-29 13:15 | 39.18529 | 127.47111 | 1112 ft | 148 kts | 326° |
| 2026-04-29 13:15 | 39.19405 | 127.46374 | 1566 ft | 157 kts | 326° |
| 2026-04-29 13:15 | 39.20406 | 127.45530 | 1766 ft | 186 kts | 325° |
| 2026-04-29 13:15 | 39.21568 | 127.44548 | 1890 ft | 216 kts | 325° |
| 2026-04-29 13:16 | 39.22920 | 127.43404 | 2258 ft | 244 kts | 326° |
| 2026-04-29 13:16 | 39.24364 | 127.42184 | 3226 ft | 251 kts | 327° |
| 2026-04-29 13:16 | 39.25837 | 127.40936 | 4264 ft | 256 kts | 327° |
| 2026-04-29 13:16 | 39.27339 | 127.39667 | 5276 ft | 261 kts | 327° |
| 2026-04-29 13:17 | 39.28870 | 127.38378 | 6261 ft | 265 kts | 327° |
| 2026-04-29 13:17 | 39.30463 | 127.37176 | 7267 ft | 265 kts | 341° |
| 2026-04-29 13:17 | 39.32278 | 127.36836 | 8223 ft | 270 kts | 360° |
| 2026-04-29 13:17 | 39.34175 | 127.37106 | 9066 ft | 274 kts | 9° |
| 2026-04-29 13:18 | 39.36042 | 127.37633 | 10067 ft | 277 kts | 11° |
| 2026-04-29 13:18 | 39.37958 | 127.38240 | 10538 ft | 296 kts | 11° |
| 2026-04-29 13:18 | 39.39355 | 127.38674 | 10630 ft | 315 kts | 11° |
| 2026-04-29 13:19 | 39.44326 | 127.40088 | 11011 ft | 366 kts | 9° |
| 2026-04-29 13:19 | 39.46850 | 127.40747 | 11602 ft | 373 kts | 9° |
| 2026-04-29 13:19 | 39.49408 | 127.41390 | 12326 ft | 376 kts | 9° |
| 2026-04-29 13:19 | 39.51989 | 127.42025 | 13049 ft | 379 kts | 8° |
| 2026-04-29 13:20 | 39.54591 | 127.42662 | 13761 ft | 383 kts | 8° |
| 2026-04-29 13:20 | 39.57220 | 127.43307 | 14400 ft | 386 kts | 9° |
| 2026-04-29 13:20 | 39.59867 | 127.43958 | 15025 ft | 389 kts | 9° |
| 2026-04-29 13:20 | 39.62535 | 127.44615 | 15640 ft | 391 kts | 9° |